Paris, Kentucky
Current Conditions -  °F | °C
As of 6:55 AM on Sunday 21 Dec 2014 (Local Time) from KIOB Reporting Station
Clear Clear  
Wind Chill: 23°   Ceiling: Unl
Heat Index: 23°   Visibility: 7mi
Dew Point: 21°   Wind: 3mph
Humidity: 93%   Direction: 90°E
Pressure: 30.3"   Gusts: NA
Location:  38.21°N, 84.25°W
Report Text: KIOB 211155Z AUTO 09003KT 7SM CLR M05/M06 A3030 RMK AO2
Loading
Personal Weather Stations






























Interactive Weather Map New forecast layout! Learn more

10-Day Weather Forecast

Advertisements
Track Severe Weather on mobile